createdAt,value
2023-02-12T00:01:51.396Z,34.90
2023-02-12T00:04:19.243Z,37.50
2023-02-12T00:06:46.645Z,38.33
2023-02-12T00:09:14.588Z,42.63
2023-02-12T00:11:42.866Z,37.83
2023-02-12T00:14:10.629Z,38.83
2023-02-12T00:16:38.192Z,35.93
2023-02-12T00:19:05.797Z,39.20
2023-02-12T00:21:35.992Z,38.17
2023-02-12T00:24:03.619Z,38.80
2023-02-12T00:26:33.625Z,35.10
2023-02-12T00:29:03.891Z,39.70
2023-02-12T00:31:34.242Z,34.27
2023-02-12T00:34:02.954Z,39.70
2023-02-12T00:36:31.905Z,40.60
2023-02-12T00:39:01.454Z,41.10
2023-02-12T00:41:30.187Z,38.47
2023-02-12T00:43:57.960Z,39.80
2023-02-12T00:46:28.254Z,38.53
2023-02-12T00:48:57.900Z,37.57
2023-02-12T00:51:26.448Z,36.33
2023-02-12T00:53:54.491Z,39.73
2023-02-12T00:56:22.028Z,35.90
2023-02-12T00:58:51.275Z,34.53
2023-02-12T01:01:18.837Z,32.67
2023-02-12T01:03:48.417Z,37.03
2023-02-12T01:06:15.964Z,36.77
2023-02-12T01:08:46.196Z,36.90
2023-02-12T01:11:15.108Z,34.10
2023-02-12T01:13:43.342Z,35.17
2023-02-12T01:16:18.512Z,35.10
2023-02-12T01:18:48.960Z,40.00
2023-02-12T01:21:19.160Z,35.13
2023-02-12T01:23:48.838Z,33.10
2023-02-12T01:26:17.276Z,34.10
2023-02-12T01:28:46.103Z,33.73
2023-02-12T01:31:17.231Z,37.67
2023-02-12T01:33:54.479Z,36.20
2023-02-12T01:36:27.326Z,36.40
2023-02-12T01:38:54.899Z,41.43
2023-02-12T01:41:25.806Z,36.83
2023-02-12T01:44:13.288Z,32.03
2023-02-12T01:46:42.660Z,41.33
2023-02-12T01:49:18.329Z,40.00
2023-02-12T01:51:47.629Z,41.20
2023-02-12T01:54:16.420Z,38.10
2023-02-12T01:56:44.987Z,40.60
2023-02-12T01:59:15.434Z,41.00
2023-02-12T02:01:43.060Z,38.37
2023-02-12T02:04:13.190Z,41.37
2023-02-12T02:06:50.091Z,40.07
2023-02-12T02:09:19.194Z,38.83
2023-02-12T02:12:07.773Z,38.57
2023-02-12T02:14:36.695Z,38.00
2023-02-12T02:17:23.826Z,36.50
2023-02-12T02:19:52.812Z,36.13
2023-02-12T02:22:32.648Z,41.23
2023-02-12T02:25:22.886Z,34.60
2023-02-12T02:27:56.768Z,37.63
2023-02-12T02:30:33.572Z,42.17
2023-02-12T02:33:30.044Z,41.83
2023-02-12T02:35:59.539Z,37.83
2023-02-12T02:38:41.217Z,37.07
2023-02-12T02:41:19.295Z,35.57
2023-02-12T02:43:51.291Z,40.67
2023-02-12T02:46:24.158Z,38.90
2023-02-12T02:48:55.078Z,42.13
2023-02-12T02:51:24.590Z,40.77
2023-02-12T02:54:06.326Z,43.37
2023-02-12T02:56:38.323Z,37.53
2023-02-12T02:59:10.968Z,41.17
2023-02-12T03:01:43.269Z,49.07
2023-02-12T03:04:16.732Z,44.90
2023-02-12T03:06:47.378Z,44.40
2023-02-12T03:09:35.281Z,40.67
2023-02-12T03:12:05.809Z,47.23
2023-02-12T03:14:36.018Z,41.53
2023-02-12T03:17:23.705Z,43.50
2023-02-12T03:19:58.088Z,39.20
2023-02-12T03:22:38.887Z,39.67
2023-02-12T03:25:09.700Z,43.63
2023-02-12T03:28:01.344Z,42.30
2023-02-12T03:30:41.092Z,49.27
2023-02-12T03:33:16.028Z,38.20
2023-02-12T03:35:53.665Z,41.60
2023-02-12T03:38:38.060Z,36.30
2023-02-12T03:41:26.421Z,42.73
2023-02-12T03:44:09.116Z,45.13
2023-02-12T03:47:04.150Z,38.97
2023-02-12T03:49:35.326Z,35.13
2023-02-12T03:52:06.228Z,36.37
2023-02-12T03:54:38.543Z,35.77
2023-02-12T03:57:11.096Z,47.13
2023-02-12T03:59:41.580Z,39.20
2023-02-12T04:02:21.444Z,40.03
2023-02-12T04:04:50.114Z,39.40
2023-02-12T04:07:19.788Z,40.90
2023-02-12T04:09:47.125Z,37.87
2023-02-12T04:12:25.685Z,36.60
2023-02-12T04:14:59.856Z,43.00
2023-02-12T04:17:38.364Z,41.33
2023-02-12T04:20:11.092Z,43.80
2023-02-12T04:22:55.204Z,39.03
2023-02-12T04:25:39.560Z,43.77
2023-02-12T04:28:15.234Z,39.93
2023-02-12T04:30:55.762Z,41.80
2023-02-12T04:33:30.445Z,39.93
2023-02-12T04:36:02.354Z,44.87
2023-02-12T04:38:37.168Z,41.33
2023-02-12T04:41:06.540Z,34.47
2023-02-12T04:43:36.804Z,39.47
2023-02-12T04:46:05.205Z,39.77
2023-02-12T04:48:37.330Z,34.80
2023-02-12T04:51:04.972Z,38.33
2023-02-12T04:53:35.047Z,35.70
2023-02-12T04:56:04.136Z,37.37
2023-02-12T04:58:36.529Z,36.57
2023-02-12T05:01:04.180Z,36.83
2023-02-12T05:03:32.582Z,34.10
2023-02-12T05:06:07.519Z,41.30
2023-02-12T05:08:39.138Z,41.30
2023-02-12T05:11:10.260Z,45.70
2023-02-12T05:13:38.483Z,46.77
2023-02-12T05:16:08.463Z,37.97
2023-02-12T05:18:39.440Z,39.43
2023-02-12T05:21:06.644Z,36.77
2023-02-12T05:23:36.098Z,36.27
2023-02-12T05:26:04.798Z,40.47
2023-02-12T05:28:33.409Z,41.83
2023-02-12T05:31:09.439Z,43.03
2023-02-12T05:33:38.410Z,45.10
2023-02-12T05:36:08.172Z,41.40
2023-02-12T05:38:37.742Z,42.10
2023-02-12T05:41:09.864Z,38.33
2023-02-12T05:43:38.916Z,43.83
2023-02-12T05:46:10.642Z,44.30
2023-02-12T05:48:38.606Z,43.63
2023-02-12T05:53:54.739Z,43.67
2023-02-12T05:56:23.290Z,44.27
2023-02-12T05:58:56.898Z,42.77
2023-02-12T06:01:28.580Z,45.60
2023-02-12T06:03:59.967Z,45.23
2023-02-12T06:06:29.495Z,48.23
2023-02-12T06:08:57.081Z,46.50
2023-02-12T06:11:24.625Z,50.13
2023-02-12T06:13:52.560Z,41.97
2023-02-12T06:16:24.330Z,42.57
2023-02-12T06:18:55.755Z,43.77
2023-02-12T06:21:24.409Z,42.73
2023-02-12T06:23:53.469Z,49.40
2023-02-12T06:26:22.277Z,52.90
2023-02-12T06:28:51.312Z,48.10
2023-02-12T06:31:23.612Z,45.53
2023-02-12T06:33:53.929Z,49.80
2023-02-12T06:36:22.046Z,47.87
2023-02-12T06:38:50.530Z,49.10
2023-02-12T06:41:24.665Z,42.80
2023-02-12T06:43:54.611Z,48.40
2023-02-12T06:46:23.059Z,50.30
2023-02-12T06:48:59.569Z,45.60
2023-02-12T06:51:29.790Z,39.83
2023-02-12T06:53:58.824Z,46.27
2023-02-12T06:56:28.237Z,43.00
2023-02-12T06:58:57.249Z,43.17
2023-02-12T07:01:26.919Z,44.90
2023-02-12T07:03:58.713Z,40.73
2023-02-12T07:06:27.376Z,45.17
2023-02-12T07:08:55.111Z,44.17
2023-02-12T07:11:26.481Z,44.50
2023-02-12T07:13:55.419Z,38.47
2023-02-12T07:16:24.131Z,38.33
2023-02-12T07:18:51.863Z,54.57
2023-02-12T07:21:21.628Z,38.93
2023-02-12T07:23:51.264Z,41.53
2023-02-12T07:26:20.551Z,42.13
2023-02-12T07:28:52.847Z,40.57
2023-02-12T07:31:23.466Z,43.53
2023-02-12T07:33:55.551Z,51.10
2023-02-12T07:36:25.570Z,44.80
2023-02-12T07:38:53.988Z,42.37
2023-02-12T07:41:24.447Z,40.40
2023-02-12T07:44:01.779Z,42.70
2023-02-12T07:46:33.450Z,42.83
2023-02-12T07:49:04.167Z,48.73
2023-02-12T07:51:35.627Z,45.90
2023-02-12T07:54:04.386Z,47.90
2023-02-12T07:56:42.071Z,36.83
2023-02-12T07:59:17.579Z,48.67
2023-02-12T08:01:53.053Z,43.73
2023-02-12T08:04:27.157Z,47.97
2023-02-12T08:06:55.944Z,48.00
2023-02-12T08:09:24.807Z,47.60
2023-02-12T08:11:53.987Z,47.13
2023-02-12T08:14:24.199Z,46.40
2023-02-12T08:16:52.252Z,48.60
2023-02-12T08:19:23.943Z,44.20
2023-02-12T08:21:55.717Z,49.00
2023-02-12T08:24:26.910Z,45.67
2023-02-12T08:26:56.972Z,48.13
2023-02-12T08:29:30.781Z,50.00
2023-02-12T08:32:00.553Z,47.67
2023-02-12T08:34:33.018Z,47.60
2023-02-12T08:37:04.855Z,52.10
2023-02-12T08:39:32.454Z,51.97
2023-02-12T08:42:02.390Z,54.97
2023-02-12T08:44:32.013Z,53.47
2023-02-12T08:47:00.628Z,51.37
2023-02-12T08:49:29.315Z,56.57
2023-02-12T08:51:58.658Z,51.07
2023-02-12T08:54:34.794Z,49.67
2023-02-12T08:57:05.601Z,58.27
2023-02-12T08:59:34.598Z,52.00
2023-02-12T09:02:08.585Z,59.87
2023-02-12T09:04:41.442Z,53.97
2023-02-12T09:07:10.944Z,55.47
2023-02-12T09:09:40.663Z,59.87
2023-02-12T09:12:09.467Z,51.27
2023-02-12T09:14:38.524Z,55.03
2023-02-12T09:17:18.948Z,53.23
2023-02-12T09:19:51.273Z,60.57
2023-02-12T09:22:20.749Z,54.33
2023-02-12T09:24:48.969Z,56.73
2023-02-12T09:27:16.144Z,60.30
2023-02-12T09:29:43.636Z,56.77
2023-02-12T09:32:11.224Z,60.60
2023-02-12T09:34:38.516Z,60.63
2023-02-12T09:37:06.889Z,55.10
2023-02-12T09:39:34.158Z,59.77
2023-02-12T09:42:15.187Z,56.47
2023-02-12T09:44:46.945Z,59.53
2023-02-12T09:47:47.337Z,62.90
2023-02-12T09:50:58.741Z,62.00
2023-02-12T09:53:32.566Z,65.33
2023-02-12T09:56:05.144Z,68.83
2023-02-12T09:58:40.422Z,66.03
2023-02-12T10:01:12.684Z,60.70
2023-02-12T10:03:39.857Z,75.33
2023-02-12T10:06:31.147Z,70.80
2023-02-12T10:09:19.620Z,66.20
2023-02-12T10:12:05.408Z,73.43
2023-02-12T10:14:42.966Z,75.80
2023-02-12T10:17:15.944Z,69.83
2023-02-12T10:20:00.935Z,73.33
2023-02-12T10:22:56.751Z,72.90
2023-02-12T10:25:30.259Z,67.50
2023-02-12T10:27:58.628Z,74.97
2023-02-12T10:30:38.362Z,74.23
2023-02-12T10:33:08.091Z,72.33
2023-02-12T10:35:37.294Z,74.73
2023-02-12T10:38:14.903Z,71.07
2023-02-12T10:40:50.182Z,63.27
2023-02-12T10:43:18.518Z,71.37
2023-02-12T10:45:47.828Z,67.53
2023-02-12T10:48:22.886Z,73.00
2023-02-12T10:51:03.608Z,77.30
2023-02-12T10:53:35.550Z,71.57
2023-02-12T10:56:12.853Z,67.53
2023-02-12T10:58:53.564Z,71.43
2023-02-12T11:01:28.535Z,67.43
2023-02-12T11:03:57.807Z,64.07
2023-02-12T11:06:27.687Z,59.43
2023-02-12T11:08:55.213Z,67.60
2023-02-12T11:11:29.145Z,70.57
2023-02-12T11:14:09.704Z,68.27
2023-02-12T11:16:38.886Z,61.20
2023-02-12T11:19:07.694Z,64.80
2023-02-12T11:21:36.602Z,67.13
2023-02-12T11:24:28.597Z,62.30
2023-02-12T11:27:15.005Z,57.43
2023-02-12T11:29:48.061Z,57.40
2023-02-12T11:32:17.836Z,60.90
2023-02-12T11:35:04.562Z,63.27
2023-02-12T11:37:33.532Z,58.37
2023-02-12T11:40:01.650Z,59.50
2023-02-12T11:42:32.327Z,51.90
2023-02-12T11:45:00.106Z,55.53
2023-02-12T11:47:29.235Z,53.53
2023-02-12T11:50:11.634Z,57.93
2023-02-12T11:52:42.612Z,49.50
2023-02-12T11:55:33.496Z,55.60
2023-02-12T11:58:06.348Z,49.93
2023-02-12T12:00:39.265Z,55.60
2023-02-12T12:03:27.890Z,51.13
2023-02-12T12:05:59.933Z,56.07
2023-02-12T12:08:37.130Z,48.73
2023-02-12T12:11:14.292Z,45.47
2023-02-12T12:13:45.088Z,44.50
2023-02-12T12:16:41.927Z,44.23
2023-02-12T12:19:52.563Z,50.90
2023-02-12T12:22:26.004Z,46.57
2023-02-12T12:25:06.355Z,48.30
2023-02-12T12:28:04.299Z,51.63
2023-02-12T12:30:46.416Z,50.20
2023-02-12T12:33:31.567Z,48.30
2023-02-12T12:36:30.942Z,51.40
2023-02-12T12:39:14.834Z,50.57
2023-02-12T12:42:01.365Z,50.93
2023-02-12T12:44:48.980Z,49.43
2023-02-12T12:47:30.809Z,55.93
2023-02-12T12:50:01.369Z,50.43
2023-02-12T12:53:12.978Z,49.97
2023-02-12T12:56:01.252Z,48.13
2023-02-12T12:58:41.677Z,54.93
2023-02-12T13:01:25.014Z,51.63
2023-02-12T13:04:01.320Z,41.40
2023-02-12T13:06:37.639Z,49.90
2023-02-12T13:09:20.743Z,45.37
2023-02-12T13:12:07.789Z,47.10
2023-02-12T13:14:41.023Z,50.53
2023-02-12T13:17:15.552Z,42.73
2023-02-12T13:19:53.851Z,41.97
2023-02-12T13:22:29.136Z,40.60
2023-02-12T13:25:06.516Z,41.80
2023-02-12T13:27:42.310Z,43.60
2023-02-12T13:30:23.010Z,43.67
2023-02-12T13:33:15.356Z,41.07
2023-02-12T13:35:57.796Z,35.80
2023-02-12T13:38:28.841Z,36.30
2023-02-12T13:41:14.346Z,37.53
2023-02-12T13:44:11.430Z,36.00
2023-02-12T13:46:50.146Z,34.53
2023-02-12T13:49:29.709Z,31.80
2023-02-12T13:52:06.408Z,30.93
2023-02-12T13:54:34.095Z,26.80
2023-02-12T13:57:02.647Z,26.93
2023-02-12T13:59:34.014Z,24.47
2023-02-12T14:02:03.156Z,28.10
2023-02-12T14:04:34.533Z,36.83
2023-02-12T14:07:06.500Z,29.00
2023-02-12T14:10:00.283Z,28.40
2023-02-12T14:12:28.455Z,26.63
2023-02-12T14:15:11.544Z,26.50
2023-02-12T14:17:57.000Z,22.77
2023-02-12T14:20:32.189Z,26.50
2023-02-12T14:22:59.351Z,20.40
2023-02-12T14:25:40.549Z,24.60
2023-02-12T14:28:15.133Z,22.20
2023-02-12T14:30:42.939Z,24.43
2023-02-12T14:33:25.258Z,22.97
2023-02-12T14:36:13.819Z,26.70
2023-02-12T14:38:47.494Z,22.67
2023-02-12T14:41:34.058Z,23.70
2023-02-12T14:44:38.431Z,26.83
2023-02-12T14:47:17.190Z,24.60
2023-02-12T14:49:54.773Z,25.00
2023-02-12T14:52:32.630Z,24.80
2023-02-12T14:55:08.715Z,24.70
2023-02-12T14:57:42.453Z,22.67
2023-02-12T15:00:20.777Z,21.13
2023-02-12T15:02:55.272Z,21.27
2023-02-12T15:05:24.308Z,21.93
2023-02-12T15:07:56.836Z,20.10
2023-02-12T15:10:25.693Z,20.30
2023-02-12T15:13:08.503Z,19.10
2023-02-12T15:15:47.831Z,22.57
2023-02-12T15:18:43.906Z,26.53
2023-02-12T15:21:22.698Z,23.87
2023-02-12T15:24:09.489Z,26.70
2023-02-12T15:26:48.494Z,21.53
2023-02-12T15:29:33.855Z,22.10
2023-02-12T15:32:07.388Z,23.63
2023-02-12T15:34:49.152Z,21.40
2023-02-12T15:37:24.969Z,25.60
2023-02-12T15:39:53.567Z,18.80
2023-02-12T15:42:42.449Z,21.33
2023-02-12T15:45:22.197Z,21.00
2023-02-12T15:48:07.375Z,20.47
2023-02-12T15:50:34.962Z,26.50
2023-02-12T15:53:05.037Z,23.80
2023-02-12T15:55:36.333Z,19.93
2023-02-12T15:58:04.664Z,22.37
2023-02-12T16:00:43.448Z,22.20
2023-02-12T16:03:37.041Z,26.50
2023-02-12T16:06:16.415Z,26.83
2023-02-12T16:08:45.777Z,23.17
2023-02-12T16:11:14.453Z,21.57
2023-02-12T16:13:50.104Z,23.73
2023-02-12T16:16:20.661Z,23.70
2023-02-12T16:19:08.847Z,24.07
2023-02-12T16:21:38.819Z,24.07
2023-02-12T16:24:06.847Z,25.50
2023-02-12T16:26:36.935Z,24.07
2023-02-12T16:29:05.013Z,25.87
2023-02-12T16:31:33.543Z,24.47
2023-02-12T16:34:05.952Z,26.60
2023-02-12T16:36:55.531Z,28.10
2023-02-12T16:39:58.678Z,32.67
2023-02-12T16:42:37.587Z,27.60
2023-02-12T16:45:24.895Z,29.43
2023-02-12T16:47:52.477Z,26.47
2023-02-12T16:50:26.185Z,32.63
2023-02-12T16:53:01.928Z,35.10
2023-02-12T16:55:31.218Z,22.07
2023-02-12T16:57:58.618Z,23.73
2023-02-12T17:00:26.490Z,28.70
2023-02-12T17:03:01.190Z,29.63
2023-02-12T17:05:29.552Z,24.80
2023-02-12T17:07:56.754Z,27.77
2023-02-12T17:10:24.104Z,24.07
2023-02-12T17:12:54.435Z,28.10
2023-02-12T17:15:23.954Z,25.70
2023-02-12T17:17:55.135Z,26.63
2023-02-12T17:20:25.037Z,26.70
2023-02-12T17:22:57.295Z,25.23
2023-02-12T17:25:26.525Z,33.83
2023-02-12T17:27:57.010Z,26.33
2023-02-12T17:30:28.909Z,23.60
2023-02-12T17:32:56.360Z,26.63
2023-02-12T17:35:23.600Z,26.83
2023-02-12T17:37:54.325Z,24.57
2023-02-12T17:40:28.100Z,25.20
2023-02-12T17:43:09.315Z,25.00
2023-02-12T17:45:44.889Z,26.20
2023-02-12T17:48:17.477Z,22.67
2023-02-12T17:51:01.818Z,28.10
2023-02-12T17:53:34.028Z,26.40
2023-02-12T17:56:02.067Z,21.87
2023-02-12T17:58:37.297Z,26.03
2023-02-12T18:01:05.866Z,27.37
2023-02-12T18:03:42.164Z,26.50
2023-02-12T18:09:26.310Z,23.73
2023-02-12T18:11:57.657Z,19.87
2023-02-12T18:14:31.892Z,20.03
2023-02-12T18:17:03.636Z,19.93
2023-02-12T18:19:35.110Z,18.93
2023-02-12T18:22:03.709Z,19.80
2023-02-12T18:24:35.711Z,20.60
2023-02-12T18:27:03.241Z,18.90
2023-02-12T18:29:36.270Z,18.97
2023-02-12T18:32:07.037Z,16.90
2023-02-12T18:34:40.137Z,14.30
2023-02-12T18:37:09.771Z,14.70
2023-02-12T18:39:45.404Z,14.20
2023-02-12T18:42:21.035Z,11.40
2023-02-12T18:44:50.995Z,14.53
2023-02-12T18:47:21.681Z,18.10
2023-02-12T18:49:51.736Z,15.50
2023-02-12T18:52:20.207Z,12.60
2023-02-12T18:54:54.888Z,15.47
2023-02-12T19:00:36.948Z,19.07
2023-02-12T19:03:31.833Z,13.37
2023-02-12T19:07:10.433Z,14.37
2023-02-12T19:12:38.320Z,15.13
2023-02-12T19:15:08.944Z,12.63
2023-02-12T19:17:58.574Z,13.17
2023-02-12T19:20:28.442Z,11.63
2023-02-12T19:22:57.489Z,11.90
2023-02-12T19:25:32.389Z,14.60
2023-02-12T19:28:00.868Z,13.67
2023-02-12T19:30:31.385Z,10.70
2023-02-12T19:32:59.727Z,10.47
2023-02-12T19:35:27.214Z,12.37
2023-02-12T19:37:56.792Z,13.80
2023-02-12T19:40:25.853Z,11.57
2023-02-12T19:42:57.091Z,11.83
2023-02-12T19:45:27.448Z,14.57
2023-02-12T19:47:57.144Z,11.90
2023-02-12T19:50:25.802Z,12.33
2023-02-12T19:52:55.488Z,13.37
2023-02-12T19:55:22.829Z,12.87
2023-02-12T19:57:51.745Z,12.70
2023-02-12T20:00:19.542Z,13.10
2023-02-12T20:02:49.337Z,12.20
2023-02-12T20:05:17.631Z,13.80
2023-02-12T20:07:46.191Z,16.80
2023-02-12T20:10:21.355Z,14.10
2023-02-12T20:12:52.076Z,11.07
2023-02-12T20:15:23.641Z,11.80
2023-02-12T20:17:52.307Z,12.90
2023-02-12T20:20:21.312Z,10.53
2023-02-12T20:22:52.346Z,13.40
2023-02-12T20:25:22.936Z,12.93
2023-02-12T20:27:51.277Z,13.40
2023-02-12T20:30:21.316Z,14.60
2023-02-12T20:32:51.585Z,15.57
2023-02-12T20:35:20.147Z,13.17
2023-02-12T20:37:49.597Z,14.57
2023-02-12T20:40:18.421Z,12.10
2023-02-12T20:42:47.839Z,13.30
2023-02-12T20:45:17.263Z,14.30
2023-02-12T20:47:49.054Z,13.70
2023-02-12T20:50:18.557Z,15.73
2023-02-12T20:52:54.189Z,15.93
2023-02-12T20:55:25.335Z,20.83
2023-02-12T20:58:00.155Z,15.63
2023-02-12T21:00:28.259Z,14.83
2023-02-12T21:03:00.304Z,16.80
2023-02-12T21:05:28.023Z,19.83
2023-02-12T21:07:58.825Z,16.53
2023-02-12T21:10:27.696Z,18.03
2023-02-12T21:12:55.938Z,15.23
2023-02-12T21:15:26.415Z,16.17
2023-02-12T21:17:53.975Z,16.73
2023-02-12T21:20:21.480Z,16.27
2023-02-12T21:22:50.230Z,16.43
2023-02-12T21:25:22.866Z,18.57
2023-02-12T21:27:57.715Z,17.70
2023-02-12T21:30:27.944Z,19.10
2023-02-12T21:33:04.749Z,17.60
2023-02-12T21:35:38.858Z,19.77
2023-02-12T21:38:06.329Z,13.67
2023-02-12T21:40:35.701Z,16.63
2023-02-12T21:43:03.322Z,16.20
2023-02-12T21:46:06.339Z,14.40
2023-02-12T21:48:34.367Z,18.17
2023-02-12T21:54:56.156Z,13.50
2023-02-12T21:57:50.755Z,15.87
2023-02-12T22:03:02.179Z,17.60
2023-02-12T22:05:31.601Z,18.13
2023-02-12T22:08:00.605Z,18.70
2023-02-12T22:10:30.128Z,15.80
2023-02-12T22:13:04.393Z,14.33
2023-02-12T22:15:44.629Z,16.90
2023-02-12T22:18:18.632Z,13.13
2023-02-12T22:20:47.838Z,13.63
2023-02-12T22:23:23.385Z,13.33
2023-02-12T22:25:56.484Z,13.67
2023-02-12T22:28:25.803Z,14.00
2023-02-12T22:30:56.560Z,12.30
2023-02-12T22:33:24.291Z,10.57
2023-02-12T22:35:52.307Z,13.30
2023-02-12T22:38:21.538Z,10.27
2023-02-12T22:40:52.411Z,11.40
2023-02-12T22:46:52.427Z,10.53
2023-02-12T22:49:22.706Z,11.30
2023-02-12T22:51:53.370Z,10.03
2023-02-12T22:54:25.646Z,11.37
2023-02-12T22:56:53.377Z,11.50
2023-02-12T22:59:23.621Z,9.07
2023-02-12T23:01:52.903Z,9.87
2023-02-12T23:04:20.921Z,14.37
2023-02-12T23:06:48.841Z,10.43
2023-02-12T23:09:19.107Z,12.10
2023-02-12T23:11:48.594Z,10.60
2023-02-12T23:14:16.719Z,11.83
2023-02-12T23:16:45.965Z,12.07
2023-02-12T23:19:14.898Z,12.40
2023-02-12T23:21:43.541Z,10.13
2023-02-12T23:24:15.411Z,12.30
2023-02-12T23:26:44.530Z,10.90
2023-02-12T23:29:44.664Z,11.93
2023-02-12T23:32:20.097Z,11.13
2023-02-12T23:34:48.542Z,11.57
2023-02-12T23:37:21.415Z,10.07
2023-02-12T23:39:55.508Z,11.70
2023-02-12T23:42:23.971Z,12.10
2023-02-12T23:44:54.607Z,13.10
2023-02-12T23:47:24.296Z,10.53
2023-02-12T23:49:53.959Z,10.13
2023-02-12T23:52:23.966Z,10.97
2023-02-12T23:54:52.244Z,11.20
2023-02-12T23:57:20.513Z,10.43
2023-02-12T23:59:49.653Z,11.30
